Time;durP1;ratioP1;P1;durP2;ratioP2;P2;SDS_P1;SDS_P2;PMS_P1;PMS_P2;Temp;Humidity;BMP_temperature;BMP_pressure;BME280_temperature;BME280_humidity;BME280_pressure;Samples;Min_cycle;Max_cycle;Signal;HPM_P1;HPM_P2
2023/12/18 02:20:24;;;;;;;32.08;21.05;;;0.90;99.90;;;;;;4727304;30;20055;-83
2023/12/18 02:39:11;;;;;;;30.08;19.23;;;0.70;99.90;;;;;;4707259;30;20040;-82
2023/12/18 03:02:06;;;;;;;25.58;17.52;;;0.60;99.90;;;;;;4658896;30;20057;-81
2023/12/18 03:05:38;;;;;;;23.55;16.88;;;0.70;99.90;;;;;;4724822;30;20049;-82
2023/12/18 04:47:08;;;;;;;;;;;;;;;;;;;;;
2023/12/18 04:50:28;;;;;;;20.65;13.65;;;0.10;99.90;;;;;;4708902;30;20150;-80
2023/12/18 05:36:43;;;;;;;23.52;15.88;;;0.00;99.90;;;;;;4662200;30;20048;-79
2023/12/18 05:39:28;;;;;;;26.83;16.55;;;0.10;99.90;;;;;;4644954;30;20356;-81
2023/12/18 05:42:00;;;;;;;27.75;16.70;;;0.10;99.90;;;;;;4643614;30;20341;-78
2023/12/18 05:44:47;;;;;;;25.08;15.45;;;0.10;99.90;;;;;;4644010;30;20051;-80
2023/12/18 05:47:12;;;;;;;23.33;15.63;;;0.20;99.90;;;;;;4657543;30;20047;-78
2023/12/18 05:49:56;;;;;;;22.75;15.18;;;0.20;99.90;;;;;;4664469;30;20129;-79
2023/12/18 05:52:22;;;;;;;23.77;16.05;;;0.20;99.90;;;;;;4660009;30;20058;-79
2023/12/18 05:54:50;;;;;;;23.48;15.00;;;0.20;99.90;;;;;;4659495;30;20100;-81
2023/12/18 05:57:19;;;;;;;21.63;14.82;;;0.20;99.90;;;;;;4660061;30;20092;-80
2023/12/18 06:00:31;;;;;;;22.15;14.88;;;0.20;99.90;;;;;;4666661;30;20045;-79
2023/12/18 06:03:31;;;;;;;22.65;14.90;;;0.20;99.90;;;;;;4726046;30;20036;-78
2023/12/18 06:06:22;;;;;;;24.13;14.40;;;0.20;99.90;;;;;;4737363;30;20165;-78
2023/12/18 06:09:20;;;;;;;21.85;14.68;;;0.10;99.90;;;;;;4743008;30;20044;-80
2023/12/18 06:11:45;;;;;;;21.63;13.95;;;0.10;99.90;;;;;;4681557;30;20221;-77
2023/12/18 06:14:11;;;;;;;20.10;14.07;;;0.00;99.90;;;;;;4713035;30;20049;-78
2023/12/18 06:16:40;;;;;;;20.95;13.65;;;0.10;99.90;;;;;;4787828;29;20344;-81
2023/12/18 06:19:09;;;;;;;20.77;13.63;;;0.00;99.90;;;;;;4814768;29;20031;-79
2023/12/18 06:21:41;;;;;;;23.20;12.98;;;0.10;99.90;;;;;;4814302;29;20070;-79
2023/12/18 06:24:07;;;;;;;22.90;13.70;;;0.00;99.90;;;;;;4815328;29;20169;-78
2023/12/18 06:26:33;;;;;;;18.95;12.95;;;0.00;99.90;;;;;;4831489;29;20255;-76
2023/12/18 06:28:58;;;;;;;17.33;11.80;;;0.00;99.90;;;;;;4832540;29;20034;-80
2023/12/18 06:31:39;;;;;;;18.30;11.60;;;0.10;99.90;;;;;;4817559;29;20042;-78
2023/12/18 06:34:05;;;;;;;19.13;11.65;;;0.00;99.90;;;;;;4818547;29;20316;-77
2023/12/18 06:36:31;;;;;;;17.65;12.32;;;0.00;99.90;;;;;;4816777;29;20038;-79
2023/12/18 06:39:10;;;;;;;20.42;11.95;;;0.00;99.90;;;;;;4843492;29;20123;-77
2023/12/18 06:41:35;;;;;;;19.88;12.80;;;0.10;99.90;;;;;;4904641;29;20063;-78
2023/12/18 06:44:02;;;;;;;19.35;12.35;;;0.10;99.90;;;;;;4891564;29;20037;-78
2023/12/18 06:46:33;;;;;;;20.63;14.98;;;0.00;99.90;;;;;;4906933;29;20202;-78
2023/12/18 06:49:03;;;;;;;21.00;13.20;;;0.10;99.90;;;;;;4908107;29;20108;-79
2023/12/18 06:51:28;;;;;;;23.17;13.68;;;0.00;99.90;;;;;;4872060;29;20043;-79
2023/12/18 06:53:54;;;;;;;19.45;12.50;;;0.00;99.90;;;;;;4872529;29;20024;-80
2023/12/18 06:56:20;;;;;;;17.70;12.52;;;-0.10;99.90;;;;;;4888745;29;20089;-78
2023/12/18 06:58:45;;;;;;;18.52;12.20;;;-0.10;99.90;;;;;;4891493;29;20037;-79
2023/12/18 07:01:30;;;;;;;20.85;12.85;;;0.00;99.90;;;;;;4872414;29;20219;-79
2023/12/18 07:03:59;;;;;;;24.30;14.45;;;0.00;99.90;;;;;;4888926;29;20033;-79
2023/12/18 07:06:55;;;;;;;26.90;16.88;;;0.00;99.90;;;;;;4872919;29;20097;-80
2023/12/18 07:09:33;;;;;;;25.60;15.93;;;0.00;99.90;;;;;;4888782;29;20040;-77
2023/12/18 07:11:59;;;;;;;24.10;15.40;;;0.10;99.90;;;;;;4871829;29;20083;-78
2023/12/18 07:14:25;;;;;;;26.25;15.82;;;0.10;99.90;;;;;;4875001;29;20049;-77
2023/12/18 07:16:54;;;;;;;23.58;14.63;;;0.10;99.90;;;;;;4888140;29;20048;-78
2023/12/18 07:19:21;;;;;;;21.70;13.95;;;0.10;99.90;;;;;;4888812;29;20302;-77
2023/12/18 07:22:07;;;;;;;25.63;14.43;;;0.10;99.90;;;;;;4886812;29;20060;-80
2023/12/18 07:24:32;;;;;;;22.85;14.43;;;0.20;99.90;;;;;;4871193;29;20263;-78
2023/12/18 07:27:01;;;;;;;23.48;14.32;;;0.30;99.90;;;;;;4868436;29;20112;-80
2023/12/18 07:29:48;;;;;;;22.58;13.38;;;0.30;99.90;;;;;;4888371;29;20033;-79
2023/12/18 07:32:13;;;;;;;29.00;15.05;;;0.30;99.90;;;;;;4903424;29;20051;-78
2023/12/18 07:34:48;;;;;;;23.77;14.07;;;0.40;99.90;;;;;;4890140;29;20033;-78
2023/12/18 07:37:23;;;;;;;23.35;13.57;;;0.40;99.90;;;;;;4907000;29;20036;-79
2023/12/18 07:39:49;;;;;;;25.48;13.35;;;0.40;99.90;;;;;;4907116;29;20044;-79
2023/12/18 07:45:45;;;;;;;19.80;12.00;;;0.50;99.90;;;;;;4906316;29;20052;-80
2023/12/18 07:48:10;;;;;;;21.25;13.00;;;0.50;99.90;;;;;;4886550;29;20097;-79
2023/12/18 07:50:37;;;;;;;26.73;12.90;;;0.50;99.90;;;;;;4899741;29;20096;-78
2023/12/18 07:53:08;;;;;;;20.48;13.02;;;0.50;99.90;;;;;;4907266;29;20037;-78
2023/12/18 07:55:34;;;;;;;19.80;11.77;;;0.60;99.90;;;;;;4906195;29;20036;-79
2023/12/18 07:57:59;;;;;;;19.42;11.85;;;0.70;99.90;;;;;;4908740;29;20032;-78
2023/12/18 08:00:25;;;;;;;20.27;12.18;;;0.70;99.90;;;;;;4904165;29;20048;-77
2023/12/18 08:02:54;;;;;;;21.25;11.90;;;0.80;99.90;;;;;;4890498;29;20035;-78
2023/12/18 08:05:20;;;;;;;15.95;10.52;;;0.80;99.90;;;;;;4904999;29;20076;-78
2023/12/18 08:07:46;;;;;;;15.93;10.57;;;0.90;99.90;;;;;;4909842;29;20299;-78
2023/12/18 08:10:12;;;;;;;16.58;11.00;;;0.90;99.90;;;;;;4893486;29;20287;-80
2023/12/18 08:12:38;;;;;;;20.13;10.43;;;1.00;99.90;;;;;;4910029;29;20035;-77
2023/12/18 08:15:07;;;;;;;24.02;12.60;;;1.10;99.90;;;;;;4877818;29;20059;-75
2023/12/18 08:17:45;;;;;;;21.08;10.50;;;1.20;99.90;;;;;;4909577;29;20056;-77
2023/12/18 08:20:17;;;;;;;18.85;10.45;;;1.20;99.90;;;;;;4910230;29;20036;-77
2023/12/18 08:22:48;;;;;;;19.30;10.70;;;1.30;99.90;;;;;;4907866;29;20301;-76
2023/12/18 08:25:40;;;;;;;17.73;10.27;;;1.40;99.90;;;;;;4890583;29;20041;-75
2023/12/18 08:28:05;;;;;;;19.38;10.13;;;1.40;99.90;;;;;;4892498;29;20033;-77
2023/12/18 08:30:47;;;;;;;19.88;11.02;;;1.40;99.90;;;;;;4878033;29;20128;-76
2023/12/18 08:33:16;;;;;;;16.35;11.23;;;1.50;99.90;;;;;;4893917;29;20314;-77
2023/12/18 08:35:41;;;;;;;19.45;11.07;;;1.60;99.90;;;;;;4909595;29;20072;-76
2023/12/18 08:38:45;;;;;;;21.45;11.57;;;1.60;99.90;;;;;;4909712;29;20056;-78
2023/12/18 08:41:27;;;;;;;21.02;11.30;;;1.70;99.90;;;;;;4883014;29;20053;-75
2023/12/18 08:43:55;;;;;;;19.00;10.50;;;1.70;99.90;;;;;;4872816;29;20037;-77
2023/12/18 08:46:21;;;;;;;21.55;11.65;;;1.80;99.90;;;;;;4872307;29;20336;-77
2023/12/18 08:48:47;;;;;;;21.08;12.35;;;1.80;99.90;;;;;;4871875;29;20129;-76
2023/12/18 08:51:21;;;;;;;27.90;13.57;;;1.90;99.90;;;;;;4872285;29;20088;-78
2023/12/18 08:53:50;;;;;;;22.35;13.07;;;1.90;99.90;;;;;;4872034;29;20229;-77
2023/12/18 08:56:16;;;;;;;24.17;12.05;;;2.00;99.90;;;;;;4867709;29;20042;-76
2023/12/18 08:58:56;;;;;;;20.98;11.32;;;2.00;99.90;;;;;;4871795;29;20057;-76
2023/12/18 09:01:48;;;;;;;25.40;11.98;;;2.10;99.90;;;;;;4871974;29;20041;-76
2023/12/18 09:04:43;;;;;;;21.50;10.80;;;2.10;99.90;;;;;;4833749;29;20074;-79
2023/12/18 09:07:11;;;;;;;25.25;10.75;;;2.20;99.90;;;;;;4854518;29;20037;-76
2023/12/18 09:09:45;;;;;;;17.58;9.77;;;2.30;99.90;;;;;;4865369;29;20034;-78
2023/12/18 09:12:11;;;;;;;17.85;10.07;;;2.30;99.90;;;;;;4867695;29;20061;-75
2023/12/18 09:15:15;;;;;;;15.70;8.95;;;2.40;99.90;;;;;;4858306;29;20319;-76
2023/12/18 09:17:42;;;;;;;17.88;9.73;;;2.50;99.90;;;;;;4845593;29;20044;-76
2023/12/18 09:20:26;;;;;;;17.38;9.85;;;2.60;99.90;;;;;;4871252;29;20268;-77
2023/12/18 09:22:59;;;;;;;20.52;9.27;;;2.60;99.90;;;;;;4871124;29;20315;-78
2023/12/18 09:25:31;;;;;;;14.55;8.90;;;2.70;99.90;;;;;;4870474;29;20057;-78
2023/12/18 09:28:03;;;;;;;13.52;8.57;;;2.70;99.90;;;;;;4874916;29;20033;-77
2023/12/18 09:30:29;;;;;;;15.25;8.57;;;2.70;99.90;;;;;;4871830;29;20062;-76
2023/12/18 09:32:57;;;;;;;13.05;8.90;;;2.80;99.90;;;;;;4863104;29;20017;-77
2023/12/18 09:35:23;;;;;;;;;;;2.80;99.90;;;;;;4873983;29;20056;-79
2023/12/18 09:38:09;;;;;;;14.60;8.60;;;2.90;99.90;;;;;;4889436;29;19912;-78
2023/12/18 09:40:35;;;;;;;12.20;8.50;;;2.90;99.90;;;;;;4890119;29;20032;-77
2023/12/18 09:43:03;;;;;;;13.20;8.48;;;3.00;99.90;;;;;;4874122;29;20037;-76
2023/12/18 09:45:42;;;;;;;12.45;7.88;;;3.10;99.90;;;;;;4869512;29;20046;-76
2023/12/18 09:48:08;;;;;;;13.48;8.38;;;3.20;99.90;;;;;;4872461;29;20045;-78
2023/12/18 09:50:53;;;;;;;18.33;9.15;;;3.30;99.90;;;;;;4883038;29;20025;-76
2023/12/18 09:53:21;;;;;;;14.55;9.70;;;3.30;99.90;;;;;;4890212;29;20188;-77
2023/12/18 09:55:54;;;;;;;13.00;9.13;;;3.40;99.90;;;;;;4872257;29;20338;-77
2023/12/18 09:58:53;;;;;;;16.20;10.63;;;3.40;99.90;;;;;;4879664;29;20028;-77
2023/12/18 10:01:23;;;;;;;16.13;9.88;;;3.50;99.90;;;;;;4882265;29;20036;-77
2023/12/18 10:03:48;;;;;;;18.35;10.13;;;3.60;99.90;;;;;;4870744;29;20041;-76
2023/12/18 10:06:14;;;;;;;14.93;9.68;;;3.60;99.90;;;;;;4878156;29;20021;-78
2023/12/18 10:08:40;;;;;;;14.57;9.75;;;3.60;99.90;;;;;;4892975;29;20029;-77
2023/12/18 10:11:05;;;;;;;15.65;9.27;;;3.70;99.90;;;;;;4908326;29;20036;-77
2023/12/18 10:13:35;;;;;;;15.55;9.63;;;3.70;99.90;;;;;;4904027;29;20092;-77
2023/12/18 10:16:04;;;;;;;15.70;10.10;;;3.80;99.90;;;;;;4868016;29;20136;-77
2023/12/18 10:18:31;;;;;;;16.83;10.13;;;3.80;99.90;;;;;;4870512;29;20211;-77
2023/12/18 10:20:57;;;;;;;14.55;9.18;;;3.90;99.90;;;;;;4869897;29;20327;-76
2023/12/18 10:23:23;;;;;;;16.88;9.18;;;4.00;99.90;;;;;;4871698;29;20041;-76
2023/12/18 10:25:49;;;;;;;13.63;8.82;;;4.00;99.90;;;;;;4870593;29;20100;-78
2023/12/18 10:28:24;;;;;;;15.93;8.52;;;4.10;99.90;;;;;;4871408;29;20028;-76
2023/12/18 10:31:20;;;;;;;16.17;8.82;;;4.20;99.90;;;;;;4875488;29;20346;-77
2023/12/18 10:34:05;;;;;;;17.58;9.15;;;4.30;99.90;;;;;;4888944;29;20044;-78
2023/12/18 10:36:33;;;;;;;14.73;9.05;;;4.40;99.90;;;;;;4887648;29;20056;-78
2023/12/18 10:39:34;;;;;;;14.63;9.02;;;4.60;99.90;;;;;;4888859;29;20040;-77
2023/12/18 10:42:08;;;;;;;13.65;8.95;;;4.70;99.90;;;;;;4874052;29;20209;-79
2023/12/18 10:44:35;;;;;;;15.00;9.10;;;4.90;99.90;;;;;;4865777;29;20331;-77
2023/12/18 10:47:16;;;;;;;13.98;9.07;;;5.20;99.90;;;;;;4850685;29;20042;-79
2023/12/18 10:49:50;;;;;;;11.60;7.78;;;5.50;99.90;;;;;;4855558;29;20056;-79
2023/12/18 10:52:50;;;;;;;13.48;8.50;;;5.80;99.90;;;;;;4870123;29;20106;-78
2023/12/18 10:55:33;;;;;;;13.50;8.27;;;6.20;99.90;;;;;;4844345;29;20046;-77
2023/12/18 10:58:04;;;;;;;14.43;9.00;;;6.50;99.90;;;;;;4836616;29;20049;-78
2023/12/18 11:00:32;;;;;;;11.32;8.48;;;7.00;99.90;;;;;;4850016;29;20256;-78
2023/12/18 11:03:18;;;;;;;16.30;7.75;;;7.50;99.90;;;;;;4850666;29;20051;-78
2023/12/18 11:06:38;;;;;;;11.80;7.82;;;7.90;99.90;;;;;;4850844;29;20077;-79
2023/12/18 11:09:11;;;;;;;11.43;8.13;;;8.30;98.70;;;;;;4836200;29;20102;-79
2023/12/18 11:11:49;;;;;;;12.65;7.78;;;8.90;97.60;;;;;;4865418;29;20316;-78
2023/12/18 11:18:04;;;;;;;10.32;7.15;;;9.80;95.00;;;;;;4869585;29;19929;-78
2023/12/18 11:21:02;;;;;;;10.52;7.03;;;10.30;93.70;;;;;;4868305;29;20071;-78
2023/12/18 11:23:39;;;;;;;9.70;7.38;;;11.10;92.60;;;;;;4870125;29;20231;-79
2023/12/18 11:26:10;;;;;;;10.45;7.13;;;11.40;91.40;;;;;;4868876;29;20220;-80
2023/12/18 11:28:37;;;;;;;11.88;6.75;;;11.80;91.10;;;;;;4852980;29;20040;-78
2023/12/18 11:31:05;;;;;;;9.05;6.70;;;12.20;89.80;;;;;;4852882;29;20028;-78
2023/12/18 11:33:32;;;;;;;10.35;7.07;;;12.60;88.90;;;;;;4852850;29;20033;-78
2023/12/18 11:36:01;;;;;;;9.05;7.10;;;13.20;86.90;;;;;;4853848;29;20315;-80
2023/12/18 11:38:33;;;;;;;9.65;6.82;;;13.80;83.90;;;;;;4838641;29;20022;-78
2023/12/18 11:41:04;;;;;;;9.98;7.28;;;14.30;81.80;;;;;;4860433;29;20029;-79
2023/12/18 11:43:37;;;;;;;7.20;6.10;;;14.80;80.40;;;;;;4887788;29;20172;-77
2023/12/18 11:46:08;;;;;;;11.38;7.05;;;15.40;78.20;;;;;;4853396;29;20066;-77
2023/12/18 11:48:34;;;;;;;8.05;6.60;;;15.70;77.10;;;;;;4869171;29;20041;-77
2023/12/18 11:51:12;;;;;;;8.15;6.15;;;15.80;76.70;;;;;;4853219;29;20120;-77
2023/12/18 11:53:38;;;;;;;8.68;6.30;;;16.10;76.20;;;;;;4840372;29;20230;-78
2023/12/18 11:56:17;;;;;;;8.27;6.07;;;16.50;73.80;;;;;;4837890;29;20104;-78
2023/12/18 11:58:43;;;;;;;10.50;6.38;;;17.10;73.00;;;;;;4852716;29;20054;-78
2023/12/18 12:01:14;;;;;;;10.30;6.70;;;17.40;70.80;;;;;;4860232;29;20370;-78
2023/12/18 12:03:40;;;;;;;10.50;6.57;;;17.60;70.10;;;;;;4886523;29;20025;-78
2023/12/18 12:06:19;;;;;;;9.18;6.07;;;17.90;69.50;;;;;;4859508;29;20034;-79
2023/12/18 12:08:52;;;;;;;6.93;5.45;;;18.40;68.60;;;;;;4869092;29;20065;-77
2023/12/18 12:11:19;;;;;;;9.70;6.13;;;18.70;67.70;;;;;;4842579;29;20315;-75
2023/12/18 12:13:56;;;;;;;7.88;5.70;;;19.10;67.10;;;;;;4884196;29;20032;-79
2023/12/18 12:16:25;;;;;;;9.55;5.97;;;19.40;66.00;;;;;;4888137;29;20112;-78
2023/12/18 12:18:55;;;;;;;10.75;6.18;;;19.50;65.00;;;;;;4887583;29;20372;-79
2023/12/18 12:21:26;;;;;;;9.65;6.47;;;19.40;64.80;;;;;;4871454;29;20036;-79
2023/12/18 12:24:16;;;;;;;10.68;6.40;;;19.60;64.50;;;;;;4887567;29;20100;-80
2023/12/18 12:26:51;;;;;;;9.23;6.80;;;19.80;63.20;;;;;;4887020;29;20334;-79
2023/12/18 12:29:20;;;;;;;8.60;5.65;;;20.30;63.10;;;;;;4871587;29;20108;-76
2023/12/18 12:31:46;;;;;;;11.10;5.90;;;20.20;62.80;;;;;;4870613;29;20044;-77
2023/12/18 12:34:14;;;;;;;8.55;6.07;;;20.20;62.70;;;;;;4856113;29;20375;-77
2023/12/18 12:36:43;;;;;;;11.27;5.88;;;20.20;61.30;;;;;;4871247;29;20029;-78
2023/12/18 12:39:08;;;;;;;9.10;5.50;;;20.40;61.50;;;;;;4883259;29;20065;-77
2023/12/18 12:41:34;;;;;;;8.50;6.03;;;19.80;62.10;;;;;;4887399;29;20025;-77
2023/12/18 12:44:01;;;;;;;9.30;5.90;;;19.80;62.30;;;;;;4889763;29;20103;-77
2023/12/18 12:46:27;;;;;;;8.18;6.38;;;19.60;62.90;;;;;;4874351;29;20035;-77
2023/12/18 12:48:53;;;;;;;10.20;6.30;;;19.10;63.70;;;;;;4859503;29;20025;-77
2023/12/18 12:51:19;;;;;;;14.10;8.10;;;18.70;65.00;;;;;;4890491;29;20040;-77
2023/12/18 12:53:46;;;;;;;10.57;7.22;;;17.80;65.60;;;;;;4873784;29;20048;-77
2023/12/18 12:56:14;;;;;;;13.60;7.10;;;17.10;67.60;;;;;;4886309;29;20093;-74
2023/12/18 12:58:40;;;;;;;17.25;7.57;;;16.90;67.90;;;;;;4890142;29;20025;-79
2023/12/18 13:01:06;;;;;;;14.73;8.30;;;16.60;68.70;;;;;;4874344;29;20211;-77
2023/12/18 13:03:37;;;;;;;17.42;8.57;;;16.30;70.00;;;;;;4890872;29;20029;-77
2023/12/18 13:06:11;;;;;;;16.95;7.65;;;16.30;69.10;;;;;;4859755;29;20044;-78
2023/12/18 13:08:43;;;;;;;16.80;7.78;;;16.30;68.90;;;;;;4885120;29;20053;-78
2023/12/18 13:11:09;;;;;;;17.42;10.23;;;16.40;69.40;;;;;;4846086;29;20425;-80
2023/12/18 13:13:35;;;;;;;15.38;8.15;;;16.50;68.90;;;;;;4855360;29;20048;-76
2023/12/18 13:16:00;;;;;;;16.08;8.32;;;16.20;68.90;;;;;;4858671;29;20037;-77
2023/12/18 13:18:32;;;;;;;17.25;7.70;;;15.90;69.90;;;;;;4890648;29;20029;-78
2023/12/18 13:20:58;;;;;;;9.90;6.60;;;15.60;70.50;;;;;;4890565;29;20048;-79
2023/12/18 13:23:24;;;;;;;10.55;6.38;;;15.10;72.10;;;;;;4873990;29;20033;-78
2023/12/18 13:25:50;;;;;;;8.73;6.13;;;14.80;73.80;;;;;;4890019;29;20041;-78
2023/12/18 13:28:16;;;;;;;10.57;5.80;;;14.50;72.80;;;;;;4858635;29;20283;-78
2023/12/18 13:30:41;;;;;;;8.73;6.00;;;14.00;74.00;;;;;;4888361;29;20061;-78
2023/12/18 13:33:07;;;;;;;12.43;6.32;;;13.50;75.60;;;;;;4874807;29;20033;-78
2023/12/18 13:35:36;;;;;;;8.02;5.47;;;13.40;76.20;;;;;;4855042;29;20025;-78
2023/12/18 13:38:02;;;;;;;8.07;5.43;;;13.10;76.40;;;;;;4871867;29;20340;-79
2023/12/18 13:40:31;;;;;;;8.50;5.60;;;13.00;77.10;;;;;;4858952;29;20037;-79
2023/12/18 13:42:57;;;;;;;9.93;5.70;;;13.00;78.20;;;;;;4891169;29;20037;-78
2023/12/18 13:45:22;;;;;;;8.70;5.70;;;13.10;79.00;;;;;;4890868;29;20447;-78
2023/12/18 13:47:49;;;;;;;9.38;6.25;;;13.00;77.90;;;;;;4862910;29;20422;-78
2023/12/18 13:50:15;;;;;;;10.88;5.97;;;13.20;77.70;;;;;;4886975;29;20025;-78
2023/12/18 13:52:40;;;;;;;9.27;5.78;;;13.60;76.30;;;;;;4890399;29;20256;-76
2023/12/18 13:55:06;;;;;;;8.57;5.85;;;14.00;76.10;;;;;;4881064;29;20096;-76
2023/12/18 13:57:38;;;;;;;9.20;6.07;;;14.30;75.00;;;;;;4874459;29;20097;-77
2023/12/18 14:00:04;;;;;;;9.63;6.15;;;14.50;74.70;;;;;;4855483;29;20215;-76
2023/12/18 14:02:32;;;;;;;8.45;6.28;;;14.40;74.60;;;;;;4871209;29;20119;-76
2023/12/18 14:05:02;;;;;;;13.40;6.47;;;14.20;74.50;;;;;;4871337;29;20029;-75
2023/12/18 14:07:31;;;;;;;10.48;6.30;;;14.10;75.10;;;;;;4854426;29;20024;-77
2023/12/18 14:09:57;;;;;;;9.95;5.28;;;14.20;74.50;;;;;;4871226;29;20034;-77
2023/12/18 14:12:23;;;;;;;8.50;5.53;;;14.10;75.50;;;;;;4871036;29;20044;-76
2023/12/18 14:14:48;;;;;;;10.13;5.53;;;13.90;76.00;;;;;;4870423;29;20339;-76
2023/12/18 14:17:14;;;;;;;9.75;6.07;;;13.50;76.20;;;;;;4884011;29;20033;-75
2023/12/18 14:19:40;;;;;;;16.90;9.15;;;13.00;77.70;;;;;;4889160;29;20064;-76
2023/12/18 14:22:06;;;;;;;11.75;6.70;;;13.00;79.00;;;;;;4889657;29;20312;-75
2023/12/18 14:24:34;;;;;;;12.68;6.60;;;13.20;79.30;;;;;;4889329;29;20065;-76
2023/12/18 14:27:04;;;;;;;;;;;13.40;77.60;;;;;;4873369;29;20097;-76
2023/12/18 14:29:33;;;;;;;9.27;6.05;;;13.70;77.00;;;;;;4889330;29;19979;-75
2023/12/18 14:31:59;;;;;;;9.40;6.38;;;13.90;75.80;;;;;;4887231;29;20060;-76
2023/12/18 14:35:06;;;;;;;9.85;6.10;;;14.10;75.70;;;;;;4839586;29;20051;-76
2023/12/18 14:37:32;;;;;;;12.23;7.10;;;13.90;75.60;;;;;;4856156;29;20037;-76
2023/12/18 14:39:59;;;;;;;14.15;7.25;;;13.30;77.40;;;;;;4884898;29;20032;-78
2023/12/18 14:42:25;;;;;;;15.67;7.70;;;13.00;78.20;;;;;;4889228;29;20050;-76
2023/12/18 14:45:09;;;;;;;12.60;7.30;;;12.90;78.80;;;;;;4888569;29;20469;-76
2023/12/18 14:48:00;;;;;;;12.07;7.20;;;12.50;80.00;;;;;;4876018;29;20072;-71
2023/12/18 14:50:35;;;;;;;12.98;6.95;;;11.50;84.20;;;;;;4888889;29;20037;-75
2023/12/18 14:53:02;;;;;;;12.35;7.38;;;10.90;86.30;;;;;;4889077;29;20316;-75
2023/12/18 14:55:30;;;;;;;11.40;7.53;;;10.40;88.20;;;;;;4887950;29;20048;-76
2023/12/18 14:58:00;;;;;;;12.55;7.65;;;10.00;90.00;;;;;;4888917;29;20099;-77
2023/12/18 15:00:30;;;;;;;12.35;7.65;;;9.70;91.00;;;;;;4888553;29;20045;-75
2023/12/18 15:02:59;;;;;;;11.65;7.55;;;9.40;91.30;;;;;;4872135;29;20028;-75
2023/12/18 15:05:25;;;;;;;10.80;7.30;;;9.10;92.10;;;;;;4888706;29;20029;-76
2023/12/18 15:07:54;;;;;;;11.55;7.32;;;9.00;92.30;;;;;;4871361;29;20025;-76
2023/12/18 15:10:20;;;;;;;12.32;7.43;;;8.80;93.00;;;;;;4888512;29;20040;-76
2023/12/18 15:13:01;;;;;;;13.18;7.75;;;8.60;93.90;;;;;;4871165;29;20276;-75
2023/12/18 15:15:39;;;;;;;17.80;9.07;;;8.40;93.90;;;;;;4887053;29;20037;-75
2023/12/18 15:18:06;;;;;;;;;;;8.30;94.60;;;;;;4888183;29;20025;-76
2023/12/18 15:20:44;;;;;;;13.32;7.78;;;8.10;94.50;;;;;;4871580;29;19914;-76
2023/12/18 15:23:18;;;;;;;13.25;9.05;;;7.90;94.90;;;;;;4888289;29;20061;-76
2023/12/18 15:25:50;;;;;;;14.68;8.65;;;7.80;95.40;;;;;;4887978;29;20259;-75
2023/12/18 15:28:22;;;;;;;14.02;8.70;;;7.60;95.70;;;;;;4888540;29;20044;-75
2023/12/18 15:30:59;;;;;;;15.75;8.85;;;7.40;96.00;;;;;;4887722;29;20311;-75
2023/12/18 15:33:34;;;;;;;14.17;8.53;;;7.30;96.40;;;;;;4888710;29;20043;-75
2023/12/18 15:36:08;;;;;;;13.50;8.75;;;7.10;96.80;;;;;;4872698;29;20457;-77
2023/12/18 15:38:38;;;;;;;12.88;7.90;;;7.00;97.10;;;;;;4869352;29;20076;-77
2023/12/18 15:41:04;;;;;;;14.50;8.45;;;6.90;97.50;;;;;;4869634;29;20041;-77
2023/12/18 15:43:30;;;;;;;12.35;7.50;;;6.80;97.80;;;;;;4868967;29;20042;-77
2023/12/18 15:48:47;;;;;;;17.13;8.77;;;6.50;98.40;;;;;;4834228;29;20350;-75
2023/12/18 15:51:15;;;;;;;11.90;7.88;;;6.40;99.10;;;;;;4867268;29;20049;-75
2023/12/18 15:53:50;;;;;;;13.93;8.48;;;6.30;99.80;;;;;;4869437;29;20025;-76
2023/12/18 15:56:19;;;;;;;13.43;8.25;;;6.20;99.90;;;;;;4838303;29;20033;-75
2023/12/18 15:58:45;;;;;;;14.70;9.23;;;6.20;99.90;;;;;;4869012;29;20038;-75
2023/12/18 16:01:15;;;;;;;23.98;14.55;;;6.10;99.90;;;;;;4869353;29;20035;-75
2023/12/18 16:03:44;;;;;;;19.80;11.60;;;6.00;99.90;;;;;;4868731;29;20060;-75
2023/12/18 16:06:10;;;;;;;20.75;11.93;;;5.90;99.90;;;;;;4869516;29;20345;-75
2023/12/18 16:08:41;;;;;;;20.92;11.88;;;5.90;99.90;;;;;;4868612;29;20104;-76
2023/12/18 16:11:52;;;;;;;14.45;10.15;;;5.80;99.90;;;;;;4885864;29;20049;-76
2023/12/18 16:14:24;;;;;;;17.70;10.23;;;5.70;99.90;;;;;;4887859;29;20081;-76
2023/12/18 16:16:56;;;;;;;16.10;9.27;;;5.60;99.90;;;;;;4887400;29;20076;-76
2023/12/18 16:19:22;;;;;;;17.85;9.73;;;5.50;99.90;;;;;;4890409;29;20049;-77
2023/12/18 16:21:50;;;;;;;17.42;10.68;;;5.40;99.90;;;;;;4891019;29;20037;-78
2023/12/18 16:24:16;;;;;;;16.98;10.35;;;5.40;99.90;;;;;;4889576;29;20033;-76
2023/12/18 16:26:54;;;;;;;17.92;10.18;;;5.30;99.90;;;;;;4863798;29;20033;-73
2023/12/18 16:29:22;;;;;;;16.33;11.20;;;5.30;99.90;;;;;;4891415;29;20033;-76
2023/12/18 16:31:54;;;;;;;16.85;9.70;;;5.20;99.90;;;;;;4888035;29;20060;-75
2023/12/18 16:34:19;;;;;;;22.15;10.13;;;5.20;99.90;;;;;;4878038;29;20029;-80
2023/12/18 16:36:46;;;;;;;17.90;11.13;;;5.10;99.90;;;;;;4878395;29;20043;-77
2023/12/18 16:39:21;;;;;;;18.55;11.30;;;5.00;99.90;;;;;;4875237;29;20048;-79
2023/12/18 16:41:47;;;;;;;22.15;11.90;;;5.00;99.90;;;;;;4874644;29;20711;-78
2023/12/18 16:44:15;;;;;;;21.65;10.50;;;5.00;99.90;;;;;;4891818;29;20052;-80
2023/12/18 16:46:41;;;;;;;19.10;11.05;;;4.90;99.90;;;;;;4874669;29;20387;-79
2023/12/18 16:49:07;;;;;;;21.83;12.73;;;4.90;99.90;;;;;;4859575;29;20029;-79
2023/12/18 16:51:32;;;;;;;23.27;12.88;;;4.80;99.90;;;;;;4885567;29;20064;-78
2023/12/18 16:54:07;;;;;;;25.27;14.73;;;4.70;99.90;;;;;;4891838;29;20029;-79
2023/12/18 16:56:33;;;;;;;26.40;14.00;;;4.60;99.90;;;;;;4891264;29;20041;-79
2023/12/18 16:58:59;;;;;;;24.00;14.13;;;4.60;99.90;;;;;;4891217;29;20092;-78
2023/12/18 17:01:24;;;;;;;23.30;13.85;;;4.50;99.90;;;;;;4891513;29;20029;-81
2023/12/18 17:03:54;;;;;;;21.55;13.38;;;4.50;99.90;;;;;;4874763;29;20048;-80
2023/12/18 17:06:24;;;;;;;17.83;12.48;;;4.40;99.90;;;;;;4875185;29;20054;-79
2023/12/18 17:08:54;;;;;;;21.25;12.50;;;4.30;99.90;;;;;;4868265;29;20021;-78
2023/12/18 17:11:26;;;;;;;16.10;11.90;;;4.30;99.90;;;;;;4872157;29;20052;-79
2023/12/18 17:13:52;;;;;;;20.90;12.10;;;4.20;99.90;;;;;;4871685;29;20053;-79
2023/12/18 17:16:39;;;;;;;20.63;12.15;;;4.20;99.90;;;;;;4858279;29;20109;-77
2023/12/18 17:19:07;;;;;;;22.73;13.25;;;4.20;99.90;;;;;;4839190;29;20033;-79
2023/12/18 17:21:36;;;;;;;20.52;13.52;;;4.10;99.90;;;;;;4855724;29;20089;-81
2023/12/18 17:24:03;;;;;;;19.17;12.88;;;4.10;99.90;;;;;;4864157;29;20045;-79
2023/12/18 17:26:29;;;;;;;22.75;14.05;;;4.00;99.90;;;;;;4873404;29;20225;-79
2023/12/18 17:28:57;;;;;;;18.90;12.52;;;3.90;99.90;;;;;;4890674;29;20041;-79
2023/12/18 17:31:37;;;;;;;19.23;13.40;;;3.90;99.90;;;;;;4874281;29;20028;-79
2023/12/18 17:34:03;;;;;;;21.05;12.93;;;3.90;99.90;;;;;;4890723;29;20137;-79
2023/12/18 17:36:41;;;;;;;21.70;13.65;;;3.90;99.90;;;;;;4890073;29;20048;-80
2023/12/18 17:39:06;;;;;;;23.73;13.80;;;3.90;99.90;;;;;;4890830;29;20037;-78
2023/12/18 17:41:40;;;;;;;22.98;14.00;;;4.00;99.90;;;;;;4890058;29;20044;-75
2023/12/18 17:44:09;;;;;;;28.85;14.82;;;4.00;99.90;;;;;;4886025;29;20070;-77
2023/12/18 17:49:28;;;;;;;21.63;13.07;;;3.90;99.90;;;;;;4878088;29;20045;-76
2023/12/18 17:51:54;;;;;;;26.35;14.65;;;3.80;99.90;;;;;;4869473;29;20316;-77
2023/12/18 17:54:23;;;;;;;26.70;16.02;;;3.70;99.90;;;;;;4871425;29;20037;-77
2023/12/18 17:56:52;;;;;;;23.88;14.85;;;3.60;99.90;;;;;;4871070;29;20026;-77
2023/12/18 17:59:21;;;;;;;24.73;14.45;;;3.60;99.90;;;;;;4870197;29;20029;-77
2023/12/18 18:01:49;;;;;;;24.48;13.68;;;3.50;99.90;;;;;;4871451;29;20038;-76
2023/12/18 18:04:18;;;;;;;25.55;15.10;;;3.50;99.90;;;;;;4871371;29;20030;-78
2023/12/18 18:06:46;;;;;;;24.00;14.77;;;3.40;99.90;;;;;;4870993;29;20244;-77
2023/12/18 18:09:15;;;;;;;23.00;13.90;;;3.30;99.90;;;;;;4844004;29;20029;-79
2023/12/18 18:11:50;;;;;;;28.83;18.05;;;3.30;99.90;;;;;;4869332;29;20029;-78
2023/12/18 18:14:16;;;;;;;23.63;15.93;;;3.30;99.90;;;;;;4838876;29;20064;-77
2023/12/18 18:16:42;;;;;;;22.90;15.27;;;3.30;99.90;;;;;;4869548;29;20343;-77
2023/12/18 18:19:19;;;;;;;25.52;14.68;;;3.20;99.90;;;;;;4854803;29;20033;-77
2023/12/18 18:21:51;;;;;;;25.73;15.15;;;3.20;99.90;;;;;;4872575;29;20319;-79
2023/12/18 18:24:16;;;;;;;24.00;15.52;;;3.20;99.90;;;;;;4854641;29;20038;-78
2023/12/18 18:26:50;;;;;;;24.42;14.65;;;3.20;99.90;;;;;;4854659;29;20105;-78
2023/12/18 18:29:31;;;;;;;24.25;15.32;;;3.20;99.90;;;;;;4839847;29;20029;-79
2023/12/18 18:32:09;;;;;;;27.27;15.45;;;3.10;99.90;;;;;;4871061;29;20041;-79
2023/12/18 18:34:48;;;;;;;;;;;3.10;99.90;;;;;;4854423;29;20156;-79
2023/12/18 18:37:16;;;;;;;27.77;14.85;;;3.10;99.90;;;;;;4882304;29;20081;-78
2023/12/18 18:39:45;;;;;;;31.27;16.80;;;3.10;99.90;;;;;;4872250;29;20037;-79